createdAt,value
2022-10-24T00:00:43.310Z,12.81
2022-10-24T00:03:11.148Z,12.77
2022-10-24T00:05:42.057Z,12.79
2022-10-24T00:08:09.201Z,12.76
2022-10-24T00:10:37.001Z,12.76
2022-10-24T00:13:04.310Z,12.75
2022-10-24T00:15:31.014Z,12.64
2022-10-24T00:17:57.646Z,12.64
2022-10-24T00:20:24.247Z,12.53
2022-10-24T00:22:50.880Z,12.56
2022-10-24T00:25:20.718Z,12.50
2022-10-24T00:27:47.537Z,12.48
2022-10-24T00:30:14.953Z,12.44
2022-10-24T00:32:41.765Z,12.40
2022-10-24T00:35:10.200Z,12.32
2022-10-24T00:37:38.446Z,12.24
2022-10-24T00:40:06.597Z,12.36
2022-10-24T00:42:34.143Z,12.57
2022-10-24T00:45:01.652Z,12.45
2022-10-24T00:47:28.625Z,12.34
2022-10-24T00:50:01.214Z,12.42
2022-10-24T00:52:30.682Z,12.47
2022-10-24T00:54:59.094Z,12.40
2022-10-24T00:57:37.137Z,12.50
2022-10-24T01:00:19.398Z,12.31
2022-10-24T01:02:46.433Z,12.27
2022-10-24T01:05:13.853Z,12.25
2022-10-24T01:07:53.579Z,12.24
2022-10-24T01:10:33.716Z,12.25
2022-10-24T01:16:11.953Z,12.24
2022-10-24T01:18:47.955Z,12.23
2022-10-24T01:21:25.500Z,12.22
2022-10-24T01:24:19.252Z,12.19
2022-10-24T01:27:07.235Z,12.18
2022-10-24T01:29:47.397Z,12.21
2022-10-24T01:32:38.058Z,12.22
2022-10-24T01:35:36.243Z,12.20
2022-10-24T01:38:14.780Z,12.23
2022-10-24T01:40:46.988Z,12.18
2022-10-24T01:43:15.375Z,12.25
2022-10-24T01:45:45.057Z,12.25
2022-10-24T01:48:16.734Z,12.26
2022-10-24T01:50:45.333Z,12.20
2022-10-24T01:53:12.815Z,12.29
2022-10-24T01:55:40.122Z,12.17
2022-10-24T01:58:07.899Z,12.17
2022-10-24T02:00:35.364Z,12.19
2022-10-24T02:03:06.770Z,12.22
2022-10-24T02:05:36.896Z,12.24
2022-10-24T02:08:07.017Z,12.20
2022-10-24T02:10:47.483Z,12.23
2022-10-24T02:13:32.679Z,12.30
2022-10-24T02:16:01.194Z,12.37
2022-10-24T02:18:28.887Z,12.38
2022-10-24T02:21:03.891Z,12.32
2022-10-24T02:23:43.490Z,12.34
2022-10-24T02:26:25.394Z,12.27
2022-10-24T02:28:53.818Z,12.43
2022-10-24T02:31:23.151Z,12.38
2022-10-24T02:33:51.590Z,12.39
2022-10-24T02:36:22.879Z,12.44
2022-10-24T02:38:51.126Z,12.45
2022-10-24T02:41:29.361Z,12.43
2022-10-24T02:43:57.040Z,12.51
2022-10-24T02:46:23.888Z,12.50
2022-10-24T02:48:57.384Z,12.50
2022-10-24T02:51:27.401Z,12.51
2022-10-24T02:53:54.347Z,12.60
2022-10-24T02:56:21.261Z,12.56
2022-10-24T02:58:47.931Z,12.55
2022-10-24T03:01:14.677Z,12.51
2022-10-24T03:03:41.491Z,12.50
2022-10-24T03:06:08.119Z,12.52
2022-10-24T03:08:34.916Z,12.53
2022-10-24T03:11:01.609Z,12.52
2022-10-24T03:13:28.561Z,12.51
2022-10-24T03:15:55.194Z,12.46
2022-10-24T03:18:21.827Z,12.45
2022-10-24T03:20:48.470Z,12.54
2022-10-24T03:23:16.526Z,12.57
2022-10-24T03:25:43.207Z,12.53
2022-10-24T03:28:09.982Z,12.58
2022-10-24T03:30:36.601Z,12.56
2022-10-24T03:33:03.206Z,12.58
2022-10-24T03:35:29.809Z,12.61
2022-10-24T03:37:56.444Z,12.65
2022-10-24T03:40:23.035Z,12.75
2022-10-24T03:42:49.746Z,12.73
2022-10-24T03:45:16.405Z,12.65
2022-10-24T03:47:43.022Z,12.67
2022-10-24T03:50:09.755Z,12.61
2022-10-24T03:52:36.532Z,12.56
2022-10-24T03:55:03.321Z,12.55
2022-10-24T03:57:30.165Z,12.44
2022-10-24T03:59:57.776Z,12.53
2022-10-24T04:02:24.413Z,12.62
2022-10-24T04:04:51.065Z,12.49
2022-10-24T04:07:17.694Z,12.50
2022-10-24T04:09:44.597Z,12.51
2022-10-24T04:12:11.314Z,12.43
2022-10-24T04:14:37.899Z,12.35
2022-10-24T04:17:04.603Z,12.30
2022-10-24T04:19:31.214Z,12.34
2022-10-24T04:21:57.797Z,12.29
2022-10-24T04:24:24.429Z,12.29
2022-10-24T04:26:51.051Z,12.27
2022-10-24T04:29:17.669Z,12.19
2022-10-24T04:31:44.269Z,12.17
2022-10-24T04:34:11.159Z,12.08
2022-10-24T04:36:37.775Z,11.99
2022-10-24T04:39:05.027Z,11.98
2022-10-24T04:41:31.728Z,11.90
2022-10-24T04:43:58.443Z,11.88
2022-10-24T04:46:27.324Z,11.86
2022-10-24T04:48:54.235Z,11.78
2022-10-24T04:51:22.586Z,11.86
2022-10-24T04:53:50.379Z,11.76
2022-10-24T04:56:18.463Z,11.67
2022-10-24T04:58:45.208Z,11.65
2022-10-24T05:01:12.222Z,11.58
2022-10-24T05:03:39.013Z,11.53
2022-10-24T05:06:06.364Z,11.48
2022-10-24T05:08:33.316Z,11.47
2022-10-24T05:11:00.167Z,11.40
2022-10-24T05:13:26.868Z,11.34
2022-10-24T05:15:56.651Z,11.33
2022-10-24T05:18:23.284Z,11.24
2022-10-24T05:20:50.077Z,11.22
2022-10-24T05:23:16.917Z,11.19
2022-10-24T05:25:43.824Z,11.12
2022-10-24T05:28:10.617Z,11.17
2022-10-24T05:30:37.415Z,11.11
2022-10-24T05:33:05.538Z,11.05
2022-10-24T05:35:32.356Z,11.03
2022-10-24T05:37:59.141Z,10.99
2022-10-24T05:40:25.953Z,11.08
2022-10-24T05:42:52.590Z,11.00
2022-10-24T05:45:19.573Z,10.97
2022-10-24T05:47:46.599Z,10.94
2022-10-24T05:50:13.721Z,10.90
2022-10-24T05:52:46.162Z,10.87
2022-10-24T05:55:16.937Z,10.88
2022-10-24T05:57:45.058Z,10.91
2022-10-24T06:00:14.462Z,10.85
2022-10-24T06:02:42.169Z,10.85
2022-10-24T06:05:12.765Z,10.86
2022-10-24T06:07:41.989Z,10.89
2022-10-24T06:10:10.181Z,10.94
2022-10-24T06:12:37.391Z,10.89
2022-10-24T06:15:06.019Z,10.97
2022-10-24T06:17:33.443Z,11.11
2022-10-24T06:20:00.334Z,11.09
2022-10-24T06:22:29.806Z,11.15
2022-10-24T06:24:57.245Z,11.16
2022-10-24T06:27:24.457Z,11.15
2022-10-24T06:29:51.166Z,11.21
2022-10-24T06:32:18.073Z,11.21
2022-10-24T06:34:44.882Z,11.25
2022-10-24T06:37:11.691Z,11.24
2022-10-24T06:39:38.505Z,11.23
2022-10-24T06:42:05.241Z,11.23
2022-10-24T06:44:32.076Z,11.27
2022-10-24T06:46:58.845Z,11.27
2022-10-24T06:49:25.552Z,11.32
2022-10-24T06:51:52.359Z,11.32
2022-10-24T06:54:19.097Z,11.36
2022-10-24T06:56:45.979Z,11.36
2022-10-24T06:59:16.083Z,11.45
2022-10-24T07:01:43.263Z,11.48
2022-10-24T07:04:10.059Z,11.53
2022-10-24T07:06:37.161Z,11.55
2022-10-24T07:09:05.527Z,11.58
2022-10-24T07:11:33.835Z,11.62
2022-10-24T07:14:01.825Z,11.70
2022-10-24T07:16:30.380Z,11.79
2022-10-24T07:18:57.201Z,11.84
2022-10-24T07:21:26.475Z,11.88
2022-10-24T07:23:53.807Z,12.05
2022-10-24T07:26:22.217Z,12.15
2022-10-24T07:28:53.414Z,12.24
2022-10-24T07:31:25.730Z,12.27
2022-10-24T07:33:53.234Z,12.39
2022-10-24T07:36:24.660Z,12.44
2022-10-24T07:38:54.675Z,12.45
2022-10-24T07:41:21.757Z,12.52
2022-10-24T07:43:48.462Z,12.55
2022-10-24T07:46:18.073Z,12.60
2022-10-24T07:48:44.893Z,12.70
2022-10-24T07:51:13.524Z,12.80
2022-10-24T07:53:41.330Z,12.84
2022-10-24T07:56:10.619Z,12.97
2022-10-24T07:58:37.648Z,13.10
2022-10-24T08:01:10.228Z,13.14
2022-10-24T08:03:37.150Z,13.16
2022-10-24T08:06:09.489Z,13.26
2022-10-24T08:08:37.693Z,13.27
2022-10-24T08:11:18.685Z,13.34
2022-10-24T08:13:45.504Z,13.48
2022-10-24T08:16:16.328Z,13.53
2022-10-24T08:18:46.916Z,13.61
2022-10-24T08:21:21.267Z,13.68
2022-10-24T08:23:54.945Z,13.65
2022-10-24T08:26:40.580Z,13.71
2022-10-24T08:32:17.606Z,13.84
2022-10-24T08:34:44.395Z,13.93
2022-10-24T08:37:13.042Z,14.07
2022-10-24T08:40:04.994Z,14.08
2022-10-24T08:43:02.726Z,14.10
2022-10-24T08:45:55.754Z,14.23
2022-10-24T08:48:34.241Z,14.22
2022-10-24T08:51:30.953Z,14.31
2022-10-24T08:53:58.592Z,14.35
2022-10-24T08:56:39.130Z,14.42
2022-10-24T08:59:15.119Z,14.53
2022-10-24T09:01:48.588Z,14.57
2022-10-24T09:04:25.941Z,14.69
2022-10-24T09:06:57.634Z,14.63
2022-10-24T09:09:38.678Z,14.75
2022-10-24T09:12:13.845Z,14.78
2022-10-24T09:14:42.561Z,14.85
2022-10-24T09:20:21.173Z,15.09
2022-10-24T09:22:48.186Z,15.25
2022-10-24T09:25:17.535Z,15.43
2022-10-24T09:27:45.267Z,15.39
2022-10-24T09:30:28.683Z,15.48
2022-10-24T09:32:59.746Z,15.64
2022-10-24T09:35:29.362Z,15.67
2022-10-24T09:38:33.552Z,15.75
2022-10-24T09:41:04.291Z,15.75
2022-10-24T09:43:47.599Z,15.86
2022-10-24T09:46:45.331Z,15.93
2022-10-24T09:49:22.836Z,16.03
2022-10-24T09:52:00.040Z,16.15
2022-10-24T09:54:30.079Z,16.42
2022-10-24T09:57:12.319Z,16.60
2022-10-24T09:59:42.296Z,16.78
2022-10-24T10:02:24.995Z,16.77
2022-10-24T10:05:20.293Z,16.84
2022-10-24T10:07:48.903Z,16.84
2022-10-24T10:10:19.012Z,16.94
2022-10-24T10:12:55.450Z,17.00
2022-10-24T10:15:36.558Z,17.09
2022-10-24T10:18:14.572Z,17.09
2022-10-24T10:20:42.996Z,17.10
2022-10-24T10:23:20.196Z,17.17
2022-10-24T10:25:47.012Z,17.11
2022-10-24T10:28:23.987Z,17.14
2022-10-24T10:30:54.799Z,17.02
2022-10-24T10:33:29.773Z,17.02
2022-10-24T10:36:08.153Z,17.08
2022-10-24T10:38:46.833Z,17.03
2022-10-24T10:41:47.543Z,17.06
2022-10-24T10:44:25.392Z,17.14
2022-10-24T10:47:06.373Z,17.24
2022-10-24T10:49:45.580Z,17.30
2022-10-24T10:52:13.494Z,17.34
2022-10-24T10:55:01.226Z,17.50
2022-10-24T10:57:38.840Z,17.52
2022-10-24T11:00:12.035Z,17.70
2022-10-24T11:02:55.047Z,17.76
2022-10-24T11:05:50.109Z,17.80
2022-10-24T11:08:39.801Z,17.79
2022-10-24T11:11:14.642Z,17.88
2022-10-24T11:13:48.760Z,17.87
2022-10-24T11:16:21.671Z,17.98
2022-10-24T11:18:51.240Z,17.99
2022-10-24T11:21:21.197Z,17.96
2022-10-24T11:24:12.703Z,17.99
2022-10-24T11:26:48.493Z,17.92
2022-10-24T11:29:15.019Z,17.98
2022-10-24T11:31:45.507Z,17.91
2022-10-24T11:34:20.560Z,17.87
2022-10-24T11:36:55.921Z,17.86
2022-10-24T11:39:30.385Z,17.86
2022-10-24T11:42:22.067Z,17.87
2022-10-24T11:45:11.049Z,17.78
2022-10-24T11:47:52.666Z,17.83
2022-10-24T11:50:26.725Z,17.82
2022-10-24T11:52:58.904Z,17.91
2022-10-24T11:55:37.358Z,17.93
2022-10-24T11:58:12.231Z,17.95
2022-10-24T12:01:05.559Z,18.06
2022-10-24T12:03:32.071Z,18.10
2022-10-24T12:06:32.680Z,18.25
2022-10-24T12:09:22.033Z,18.32
2022-10-24T12:12:01.044Z,18.45
2022-10-24T12:14:41.235Z,18.55
2022-10-24T12:17:21.712Z,18.48
2022-10-24T12:19:49.352Z,18.59
2022-10-24T12:22:21.902Z,18.60
2022-10-24T12:24:48.654Z,18.57
2022-10-24T12:27:21.212Z,18.50
2022-10-24T12:30:01.073Z,18.48
2022-10-24T12:32:42.465Z,18.53
2022-10-24T12:35:31.336Z,18.45
2022-10-24T12:37:58.797Z,18.43
2022-10-24T12:40:47.340Z,18.37
2022-10-24T12:43:34.148Z,18.37
2022-10-24T12:46:24.316Z,18.32
2022-10-24T12:48:56.923Z,18.26
2022-10-24T12:51:36.269Z,18.15
2022-10-24T12:54:10.826Z,18.16
2022-10-24T12:56:49.455Z,18.11
2022-10-24T12:59:27.483Z,18.13
2022-10-24T13:02:32.288Z,18.11
2022-10-24T13:05:14.070Z,18.04
2022-10-24T13:08:05.806Z,18.10
2022-10-24T13:11:01.742Z,18.10
2022-10-24T13:13:54.995Z,18.08
2022-10-24T13:16:44.511Z,18.17
2022-10-24T13:19:17.008Z,18.18
2022-10-24T13:21:48.678Z,18.09
2022-10-24T13:24:15.189Z,18.22
2022-10-24T13:27:03.921Z,18.22
2022-10-24T13:29:30.449Z,18.25
2022-10-24T13:32:06.089Z,18.37
2022-10-24T13:34:54.402Z,18.28
2022-10-24T13:37:31.851Z,18.33
2022-10-24T13:40:07.588Z,18.32
2022-10-24T13:42:40.023Z,18.21
2022-10-24T13:45:19.699Z,18.16
2022-10-24T13:47:50.904Z,18.19
2022-10-24T13:50:30.865Z,18.16
2022-10-24T13:53:05.463Z,18.29
2022-10-24T13:55:36.449Z,18.26
2022-10-24T13:58:05.930Z,18.28
2022-10-24T14:00:35.723Z,18.31
2022-10-24T14:03:05.141Z,18.25
2022-10-24T14:05:35.426Z,18.21
2022-10-24T14:08:02.510Z,18.18
2022-10-24T14:10:31.321Z,18.19
2022-10-24T14:12:58.296Z,18.09
2022-10-24T14:15:32.585Z,18.12
2022-10-24T14:18:01.560Z,18.03
2022-10-24T14:20:30.751Z,17.96
2022-10-24T14:22:57.718Z,17.87
2022-10-24T14:25:35.540Z,17.91
2022-10-24T14:28:10.121Z,17.87
2022-10-24T14:30:36.782Z,17.85
2022-10-24T14:33:21.050Z,17.76
2022-10-24T14:35:48.587Z,17.70
2022-10-24T14:38:16.780Z,17.67
2022-10-24T14:40:44.245Z,17.63
2022-10-24T14:43:28.537Z,17.47
2022-10-24T14:46:32.834Z,17.52
2022-10-24T14:49:22.963Z,17.45
2022-10-24T14:54:20.331Z,17.35
2022-10-24T14:56:47.369Z,17.21
2022-10-24T14:59:29.415Z,17.24
2022-10-24T15:02:05.319Z,17.31
2022-10-24T15:04:38.880Z,17.34
2022-10-24T15:07:30.029Z,17.18
2022-10-24T15:10:46.217Z,17.18
2022-10-24T15:13:14.612Z,17.08
2022-10-24T15:15:44.085Z,17.04
2022-10-24T15:18:40.564Z,17.06
2022-10-24T15:21:13.338Z,16.92
2022-10-24T15:23:48.340Z,16.91
2022-10-24T15:26:21.296Z,16.99
2022-10-24T15:28:54.682Z,16.81
2022-10-24T15:31:22.243Z,16.83
2022-10-24T15:33:51.913Z,16.77
2022-10-24T15:36:25.799Z,16.64
2022-10-24T15:38:55.959Z,16.72
2022-10-24T15:41:22.714Z,16.64
2022-10-24T15:43:49.367Z,16.43
2022-10-24T15:46:16.167Z,16.44
2022-10-24T15:48:43.456Z,16.44
2022-10-24T15:51:14.521Z,16.48
2022-10-24T15:53:41.869Z,16.31
2022-10-24T15:56:08.454Z,16.33
2022-10-24T15:58:35.159Z,16.26
2022-10-24T16:01:01.951Z,16.18
2022-10-24T16:03:28.687Z,16.03
2022-10-24T16:05:59.213Z,16.02
2022-10-24T16:08:25.868Z,15.98
2022-10-24T16:10:53.507Z,15.85
2022-10-24T16:13:22.228Z,15.84
2022-10-24T16:15:49.516Z,15.92
2022-10-24T16:18:16.133Z,15.91
2022-10-24T16:20:42.732Z,15.88
2022-10-24T16:23:11.347Z,15.79
2022-10-24T16:25:38.264Z,15.85
2022-10-24T16:28:07.204Z,15.72
2022-10-24T16:30:36.968Z,15.58
2022-10-24T16:33:03.878Z,15.52
2022-10-24T16:35:34.578Z,15.43
2022-10-24T16:38:02.737Z,15.37
2022-10-24T16:40:29.488Z,15.40
2022-10-24T16:42:57.702Z,15.26
2022-10-24T16:45:24.962Z,15.17
2022-10-24T16:47:51.623Z,15.14
2022-10-24T16:50:24.082Z,15.07
2022-10-24T16:52:52.326Z,15.01
2022-10-24T16:55:19.651Z,15.04
2022-10-24T16:57:46.887Z,14.97
2022-10-24T17:00:16.835Z,14.94
2022-10-24T17:02:45.643Z,14.88
2022-10-24T17:05:15.676Z,14.96
2022-10-24T17:07:43.140Z,14.79
2022-10-24T17:10:11.743Z,14.79
2022-10-24T17:12:42.685Z,14.76
2022-10-24T17:15:10.061Z,14.77
2022-10-24T17:17:36.690Z,14.80
2022-10-24T17:20:04.196Z,14.78
2022-10-24T17:22:30.945Z,14.74
2022-10-24T17:24:57.826Z,14.69
2022-10-24T17:27:24.960Z,14.75
2022-10-24T17:29:51.736Z,14.83
2022-10-24T17:32:18.503Z,14.78
2022-10-24T17:34:50.041Z,14.73
2022-10-24T17:37:35.332Z,14.78
2022-10-24T17:40:01.915Z,14.79
2022-10-24T17:42:28.766Z,14.69
2022-10-24T17:44:55.406Z,14.69
2022-10-24T17:47:22.012Z,14.67
2022-10-24T17:49:48.578Z,14.75
2022-10-24T17:52:21.619Z,14.71
2022-10-24T17:54:48.341Z,14.62
2022-10-24T17:57:14.900Z,14.56
2022-10-24T17:59:41.510Z,14.47
2022-10-24T18:02:13.390Z,14.47
2022-10-24T18:04:42.439Z,14.51
2022-10-24T18:07:09.160Z,14.66
2022-10-24T18:09:39.012Z,14.70
2022-10-24T18:12:06.285Z,14.58
2022-10-24T18:14:32.892Z,14.60
2022-10-24T18:17:01.138Z,14.61
2022-10-24T18:19:27.835Z,14.71
2022-10-24T18:21:54.452Z,14.66
2022-10-24T18:24:21.106Z,14.53
2022-10-24T18:26:47.847Z,14.58
2022-10-24T18:29:14.512Z,14.63
2022-10-24T18:31:41.144Z,14.69
2022-10-24T18:34:08.700Z,14.66
2022-10-24T18:36:36.889Z,14.81
2022-10-24T18:39:03.831Z,14.76
2022-10-24T18:41:46.869Z,14.82
2022-10-24T18:44:30.329Z,14.85
2022-10-24T18:47:02.807Z,14.83
2022-10-24T18:49:30.298Z,14.84
2022-10-24T18:52:07.286Z,14.89
2022-10-24T18:54:35.809Z,14.84
2022-10-24T18:57:02.759Z,14.91
2022-10-24T18:59:31.864Z,14.87
2022-10-24T19:02:13.751Z,14.83
2022-10-24T19:04:42.489Z,14.72
2022-10-24T19:07:10.120Z,14.64
2022-10-24T19:09:36.834Z,14.72
2022-10-24T19:12:03.525Z,14.66
2022-10-24T19:14:30.197Z,14.76
2022-10-24T19:16:58.193Z,14.66
2022-10-24T19:19:26.616Z,14.58
2022-10-24T19:21:53.408Z,14.69
2022-10-24T19:24:20.365Z,14.73
2022-10-24T19:26:47.233Z,14.86
2022-10-24T19:29:14.206Z,14.75
2022-10-24T19:31:40.808Z,14.77
2022-10-24T19:34:09.339Z,14.79
2022-10-24T19:36:36.124Z,14.74
2022-10-24T19:39:02.762Z,14.81
2022-10-24T19:41:29.350Z,14.83
2022-10-24T19:43:56.080Z,14.82
2022-10-24T19:46:22.947Z,14.80
2022-10-24T19:48:50.280Z,14.70
2022-10-24T19:51:18.076Z,14.71
2022-10-24T19:53:45.516Z,14.62
2022-10-24T19:56:20.066Z,14.59
2022-10-24T19:58:49.326Z,14.68
2022-10-24T20:01:29.315Z,14.59
2022-10-24T20:03:56.666Z,14.50
2022-10-24T20:06:24.636Z,14.55
2022-10-24T20:08:51.376Z,14.56
2022-10-24T20:11:20.594Z,14.51
2022-10-24T20:13:50.312Z,14.44
2022-10-24T20:16:17.907Z,14.39
2022-10-24T20:18:45.541Z,14.32
2022-10-24T20:21:14.704Z,14.23
2022-10-24T20:23:41.907Z,14.21
2022-10-24T20:26:15.334Z,14.16
2022-10-24T20:28:46.044Z,14.17
2022-10-24T20:31:23.118Z,14.13
2022-10-24T20:33:52.453Z,14.05
2022-10-24T20:36:21.357Z,14.02
2022-10-24T20:38:48.131Z,13.97
2022-10-24T20:41:14.983Z,13.90
2022-10-24T20:43:41.620Z,13.87
2022-10-24T20:46:08.426Z,13.85
2022-10-24T20:48:35.312Z,13.86
2022-10-24T20:51:10.923Z,13.81
2022-10-24T20:53:38.283Z,13.80
2022-10-24T20:56:12.342Z,13.78
2022-10-24T20:58:40.328Z,13.70
2022-10-24T21:01:08.773Z,13.60
2022-10-24T21:03:36.109Z,13.62
2022-10-24T21:06:04.254Z,13.61
2022-10-24T21:08:31.048Z,13.54
2022-10-24T21:10:57.867Z,13.54
2022-10-24T21:13:24.464Z,13.69
2022-10-24T21:15:57.498Z,13.69
2022-10-24T21:18:24.339Z,13.58
2022-10-24T21:20:51.156Z,13.51
2022-10-24T21:23:19.159Z,13.51
2022-10-24T21:25:45.836Z,13.52
2022-10-24T21:28:12.452Z,13.42
2022-10-24T21:30:39.346Z,13.37
2022-10-24T21:33:10.556Z,13.29
2022-10-24T21:35:40.133Z,13.23
2022-10-24T21:38:06.727Z,13.16
2022-10-24T21:40:33.334Z,13.11
2022-10-24T21:43:00.453Z,13.06
2022-10-24T21:45:27.123Z,13.04
2022-10-24T21:47:53.678Z,13.01
2022-10-24T21:50:21.797Z,13.04
2022-10-24T21:52:48.583Z,12.99
2022-10-24T21:55:15.385Z,12.93
2022-10-24T21:57:42.090Z,12.87
2022-10-24T22:00:09.536Z,12.80
2022-10-24T22:02:36.348Z,12.77
2022-10-24T22:05:03.180Z,12.71
2022-10-24T22:07:29.817Z,12.66
2022-10-24T22:10:01.087Z,12.65
2022-10-24T22:12:27.719Z,12.66
2022-10-24T22:14:54.356Z,12.58
2022-10-24T22:17:20.983Z,12.61
2022-10-24T22:19:47.776Z,12.55
2022-10-24T22:22:14.466Z,12.51
2022-10-24T22:24:41.086Z,12.46
2022-10-24T22:27:07.925Z,12.39
2022-10-24T22:29:34.571Z,12.35
2022-10-24T22:32:01.479Z,12.31
2022-10-24T22:34:28.535Z,12.28
2022-10-24T22:36:54.986Z,12.26
2022-10-24T22:39:23.567Z,12.24
2022-10-24T22:41:50.865Z,12.27
2022-10-24T22:44:20.501Z,12.33
2022-10-24T22:46:52.674Z,12.35
2022-10-24T22:49:23.620Z,12.31
2022-10-24T22:51:50.445Z,12.28
2022-10-24T22:54:22.272Z,12.31
2022-10-24T22:56:49.374Z,12.23
2022-10-24T22:59:16.421Z,12.26
2022-10-24T23:01:58.235Z,12.32
2022-10-24T23:04:46.692Z,12.19
2022-10-24T23:07:29.365Z,12.12
2022-10-24T23:09:55.947Z,12.07
2022-10-24T23:12:23.205Z,12.09
2022-10-24T23:14:50.679Z,12.05
2022-10-24T23:17:26.112Z,12.04
2022-10-24T23:19:53.510Z,12.01
2022-10-24T23:22:23.756Z,11.98
2022-10-24T23:24:51.739Z,11.98
2022-10-24T23:27:33.270Z,11.93
2022-10-24T23:30:01.937Z,11.90
2022-10-24T23:32:31.509Z,11.86
2022-10-24T23:34:58.812Z,11.81
2022-10-24T23:37:31.913Z,11.79
2022-10-24T23:40:00.436Z,11.78
2022-10-24T23:42:30.319Z,11.78
2022-10-24T23:45:05.165Z,11.74
2022-10-24T23:47:43.741Z,11.77
2022-10-24T23:50:16.035Z,11.72
2022-10-24T23:53:11.982Z,11.67
2022-10-24T23:55:38.777Z,11.64
2022-10-24T23:58:05.507Z,11.60
